Time;durP1;ratioP1;P1;durP2;ratioP2;P2;SDS_P1;SDS_P2;PMS_P1;PMS_P2;Temp;Humidity;BMP_temperature;BMP_pressure;BME280_temperature;BME280_humidity;BME280_pressure;Samples;Min_cycle;Max_cycle;Signal;HPM_P1;HPM_P2
2023/05/26 00:02:25;;;;;;;35.58;5.22;;;;;;;;;;6240842;23;20019;-91
2023/05/26 00:04:58;;;;;;;34.13;4.78;;;;;;;;;;6240331;23;20011;-91
2023/05/26 00:07:27;;;;;;;38.40;5.50;;;;;;;;;;6239111;23;20000;-91
2023/05/26 00:09:53;;;;;;;28.38;4.32;;;;;;;;;;6241253;23;20016;-91
2023/05/26 00:12:20;;;;;;;29.60;5.30;;;;;;;;;;6240025;23;20016;-91
2023/05/26 00:14:48;;;;;;;28.85;4.75;;;;;;;;;;6239868;23;20008;-91
2023/05/26 00:17:16;;;;;;;26.58;4.47;;;;;;;;;;6240452;23;20597;-91
2023/05/26 00:19:43;;;;;;;32.17;6.55;;;;;;;;;;6240955;23;20009;-91
2023/05/26 00:22:14;;;;;;;33.10;5.53;;;;;;;;;;6238737;23;20008;-91
2023/05/26 00:24:40;;;;;;;31.33;4.95;;;;;;;;;;6240244;23;20481;-91
2023/05/26 00:27:06;;;;;;;33.30;5.15;;;;;;;;;;6240680;23;20422;-91
2023/05/26 00:29:34;;;;;;;27.45;5.10;;;;;;;;;;6238429;23;20016;-91
2023/05/26 00:32:00;;;;;;;29.08;4.70;;;;;;;;;;6240576;22;20047;-90
2023/05/26 00:34:27;;;;;;;39.38;5.70;;;;;;;;;;6240483;23;20380;-90
2023/05/26 00:36:53;;;;;;;34.47;5.60;;;;;;;;;;6240153;23;20128;-90
2023/05/26 00:39:19;;;;;;;24.50;4.47;;;;;;;;;;6240865;22;20089;-90
2023/05/26 00:41:49;;;;;;;27.35;5.68;;;;;;;;;;6240226;23;20433;-91
2023/05/26 00:44:19;;;;;;;27.90;5.35;;;;;;;;;;6235903;23;20004;-91
2023/05/26 00:46:45;;;;;;;34.63;5.97;;;;;;;;;;6241854;23;20067;-91
2023/05/26 00:49:13;;;;;;;24.77;4.70;;;;;;;;;;6240007;23;20008;-92
2023/05/26 00:51:40;;;;;;;35.70;5.35;;;;;;;;;;6239098;23;20070;-91
2023/05/26 00:54:06;;;;;;;39.58;5.80;;;;;;;;;;6240500;23;20031;-92
2023/05/26 00:56:36;;;;;;;36.53;6.63;;;;;;;;;;6237940;23;20008;-92
2023/05/26 00:59:03;;;;;;;26.70;5.13;;;;;;;;;;6238483;23;20082;-92
2023/05/26 01:01:40;;;;;;;30.27;5.53;;;;;;;;;;6240805;23;20422;-91
2023/05/26 01:04:10;;;;;;;33.90;4.43;;;;;;;;;;6238904;23;20004;-91
2023/05/26 01:06:44;;;;;;;25.85;5.18;;;;;;;;;;6240529;23;20008;-92
2023/05/26 01:09:17;;;;;;;29.58;5.30;;;;;;;;;;6241297;23;20016;-92
2023/05/26 01:11:44;;;;;;;31.85;5.65;;;;;;;;;;6237818;23;20008;-92
2023/05/26 01:14:10;;;;;;;31.65;4.47;;;;;;;;;;6240452;23;20083;-91
2023/05/26 01:16:51;;;;;;;39.28;5.60;;;;;;;;;;6240781;23;20610;-91
2023/05/26 01:19:24;;;;;;;21.35;5.03;;;;;;;;;;6239652;23;20195;-91
2023/05/26 01:21:52;;;;;;;39.08;5.50;;;;;;;;;;6238764;23;20010;-91
2023/05/26 01:24:26;;;;;;;41.25;6.82;;;;;;;;;;6241276;23;20084;-91
2023/05/26 01:26:55;;;;;;;27.48;4.78;;;;;;;;;;6239820;23;20005;-91
2023/05/26 01:29:23;;;;;;;22.30;5.43;;;;;;;;;;6238779;23;20012;-91
2023/05/26 01:31:49;;;;;;;35.90;5.20;;;;;;;;;;6240969;22;20051;-91
2023/05/26 01:34:15;;;;;;;32.17;5.40;;;;;;;;;;6238899;23;20016;-91
2023/05/26 01:36:41;;;;;;;36.33;5.50;;;;;;;;;;6238510;23;20217;-91
2023/05/26 01:39:08;;;;;;;16.42;5.63;;;;;;;;;;6239502;22;20074;-92
2023/05/26 01:41:42;;;;;;;38.45;5.50;;;;;;;;;;6240204;23;20012;-91
2023/05/26 01:44:41;;;;;;;28.50;4.80;;;;;;;;;;6236128;23;20015;-91
2023/05/26 01:47:07;;;;;;;27.75;4.38;;;;;;;;;;6189410;23;20008;-91
2023/05/26 01:49:36;;;;;;;44.70;5.88;;;;;;;;;;6239970;23;20058;-90
2023/05/26 01:52:07;;;;;;;33.72;4.70;;;;;;;;;;6237590;23;20480;-89
2023/05/26 01:54:41;;;;;;;45.72;6.25;;;;;;;;;;6239300;23;20008;-90
2023/05/26 01:57:08;;;;;;;24.05;4.90;;;;;;;;;;6238891;23;20008;-91
2023/05/26 01:59:37;;;;;;;33.47;5.88;;;;;;;;;;6238195;23;20278;-91
2023/05/26 02:02:04;;;;;;;38.42;5.38;;;;;;;;;;6262994;22;20004;-90
2023/05/26 02:04:33;;;;;;;38.13;5.40;;;;;;;;;;6237871;23;20000;-91
2023/05/26 02:07:02;;;;;;;29.60;4.80;;;;;;;;;;6236920;23;20076;-91
2023/05/26 02:09:30;;;;;;;35.50;5.15;;;;;;;;;;6239104;23;20020;-90
2023/05/26 02:11:56;;;;;;;42.10;5.38;;;;;;;;;;6237883;23;20008;-91
2023/05/26 02:14:22;;;;;;;24.88;4.18;;;;;;;;;;6238186;23;20012;-91
2023/05/26 02:16:50;;;;;;;34.58;5.65;;;;;;;;;;6239892;23;20046;-91
2023/05/26 02:19:42;;;;;;;32.03;5.25;;;;;;;;;;6240331;23;20012;-90
2023/05/26 02:22:14;;;;;;;26.67;4.95;;;;;;;;;;6229404;23;20419;-91
2023/05/26 02:24:41;;;;;;;31.45;5.35;;;;;;;;;;6239828;23;20438;-91
2023/05/26 02:27:10;;;;;;;38.38;5.22;;;;;;;;;;6239506;23;20008;-91
2023/05/26 02:29:36;;;;;;;31.73;4.90;;;;;;;;;;6239594;23;20012;-91
2023/05/26 02:32:02;;;;;;;28.52;5.22;;;;;;;;;;6240714;22;20016;-91
2023/05/26 02:34:29;;;;;;;32.10;6.07;;;;;;;;;;6239362;23;20371;-92
2023/05/26 02:36:55;;;;;;;38.80;5.95;;;;;;;;;;6265177;22;20012;-91
2023/05/26 02:39:25;;;;;;;32.60;5.50;;;;;;;;;;6238003;22;20012;-91
2023/05/26 02:41:53;;;;;;;33.75;5.50;;;;;;;;;;6239493;23;20087;-90
2023/05/26 02:44:19;;;;;;;35.22;5.85;;;;;;;;;;6239138;23;20379;-90
2023/05/26 02:46:45;;;;;;;37.58;6.03;;;;;;;;;;6239427;23;20012;-90
2023/05/26 02:49:11;;;;;;;21.88;5.30;;;;;;;;;;6239454;23;20065;-89
2023/05/26 02:51:38;;;;;;;37.25;5.28;;;;;;;;;;6241136;23;20051;-91
2023/05/26 02:54:04;;;;;;;38.38;5.65;;;;;;;;;;6239409;23;20287;-89
2023/05/26 02:56:33;;;;;;;28.58;4.70;;;;;;;;;;6240773;23;20058;-90
2023/05/26 02:59:00;;;;;;;30.88;4.97;;;;;;;;;;6239020;23;20012;-90
2023/05/26 03:01:27;;;;;;;35.78;5.78;;;;;;;;;;6238391;23;20202;-90
2023/05/26 03:03:53;;;;;;;30.35;5.32;;;;;;;;;;6239046;23;20019;-91
2023/05/26 03:06:19;;;;;;;25.60;5.03;;;;;;;;;;6238463;23;20501;-91
2023/05/26 03:08:46;;;;;;;37.42;5.03;;;;;;;;;;6239739;23;20022;-90
2023/05/26 03:11:16;;;;;;;34.80;5.10;;;;;;;;;;6240258;23;20017;-89
2023/05/26 03:13:42;;;;;;;34.22;5.38;;;;;;;;;;6238235;23;20412;-91
2023/05/26 03:16:08;;;;;;;21.67;4.50;;;;;;;;;;6240180;23;20019;-91
2023/05/26 03:18:38;;;;;;;36.35;4.30;;;;;;;;;;6238919;23;20811;-91
2023/05/26 03:21:06;;;;;;;41.70;5.03;;;;;;;;;;6236368;23;20452;-91
2023/05/26 03:23:33;;;;;;;30.48;4.90;;;;;;;;;;6238581;23;20425;-92
2023/05/26 03:26:00;;;;;;;17.58;4.03;;;;;;;;;;6240477;23;20087;-92
2023/05/26 03:28:33;;;;;;;32.95;4.47;;;;;;;;;;6239013;23;20016;-91
2023/05/26 03:31:08;;;;;;;31.45;4.70;;;;;;;;;;6239509;22;20020;-92
2023/05/26 03:33:34;;;;;;;39.78;5.32;;;;;;;;;;6239288;23;20011;-92
2023/05/26 03:38:50;;;;;;;28.55;5.22;;;;;;;;;;6228619;22;20016;-92
2023/05/26 03:41:16;;;;;;;30.75;4.50;;;;;;;;;;6238344;23;20004;-92
2023/05/26 03:43:44;;;;;;;29.92;5.40;;;;;;;;;;6239382;23;20004;-92
2023/05/26 03:46:15;;;;;;;41.15;5.68;;;;;;;;;;6237373;23;20090;-92
2023/05/26 03:48:42;;;;;;;40.70;6.20;;;;;;;;;;6240413;23;20070;-92
2023/05/26 03:51:15;;;;;;;25.92;4.50;;;;;;;;;;6238587;23;20454;-91
2023/05/26 03:53:44;;;;;;;39.50;4.85;;;;;;;;;;6238490;23;20205;-92
2023/05/26 03:56:10;;;;;;;45.00;6.35;;;;;;;;;;6238743;23;20072;-92
2023/05/26 03:58:36;;;;;;;25.90;5.10;;;;;;;;;;6239695;23;20343;-91
2023/05/26 04:01:03;;;;;;;44.72;6.45;;;;;;;;;;6241478;23;20008;-91
2023/05/26 04:03:33;;;;;;;36.72;6.72;;;;;;;;;;6240263;23;20099;-91
2023/05/26 04:06:00;;;;;;;36.80;4.97;;;;;;;;;;6241662;23;20058;-92
2023/05/26 04:08:30;;;;;;;35.55;5.25;;;;;;;;;;6240020;23;20460;-91
2023/05/26 04:10:57;;;;;;;36.20;5.65;;;;;;;;;;6239645;23;20062;-91
2023/05/26 04:13:24;;;;;;;34.40;5.88;;;;;;;;;;6238850;23;20016;-91
2023/05/26 04:15:53;;;;;;;26.95;4.90;;;;;;;;;;6239924;23;20012;-92
2023/05/26 04:18:21;;;;;;;32.10;4.95;;;;;;;;;;6239821;23;20453;-91
2023/05/26 04:20:50;;;;;;;24.25;4.28;;;;;;;;;;6241072;23;20098;-91
2023/05/26 04:23:17;;;;;;;26.50;4.97;;;;;;;;;;6240497;23;20089;-91
2023/05/26 04:25:46;;;;;;;37.28;5.38;;;;;;;;;;6239691;23;20337;-92
2023/05/26 04:28:14;;;;;;;29.02;4.88;;;;;;;;;;6240005;23;20035;-92
2023/05/26 04:30:40;;;;;;;32.03;5.70;;;;;;;;;;6234587;22;20013;-91
2023/05/26 04:33:07;;;;;;;30.27;6.20;;;;;;;;;;6209503;23;20519;-91
2023/05/26 04:35:36;;;;;;;28.25;5.25;;;;;;;;;;6235402;23;20210;-92
2023/05/26 04:38:04;;;;;;;30.30;5.03;;;;;;;;;;6210998;23;20015;-92
2023/05/26 04:40:32;;;;;;;42.42;5.95;;;;;;;;;;6186077;23;20040;-92
2023/05/26 04:43:00;;;;;;;36.25;5.03;;;;;;;;;;6184114;23;20159;-92
2023/05/26 04:45:27;;;;;;;27.98;5.15;;;;;;;;;;6184535;23;20009;-90
2023/05/26 04:47:56;;;;;;;28.50;5.28;;;;;;;;;;6209273;23;20031;-91
2023/05/26 04:50:23;;;;;;;29.17;4.47;;;;;;;;;;6210158;23;20078;-91
2023/05/26 04:52:49;;;;;;;21.33;3.85;;;;;;;;;;6209335;23;20040;-90
2023/05/26 04:55:16;;;;;;;19.40;3.80;;;;;;;;;;6208632;23;20012;-90
2023/05/26 04:57:43;;;;;;;25.58;4.40;;;;;;;;;;6209289;23;20091;-90
2023/05/26 05:00:10;;;;;;;25.60;5.28;;;;;;;;;;6193069;23;20230;-90
2023/05/26 05:02:36;;;;;;;29.92;4.82;;;;;;;;;;6205009;23;20067;-90
2023/05/26 05:05:03;;;;;;;23.05;4.47;;;;;;;;;;6206247;23;20001;-91
2023/05/26 05:07:30;;;;;;;32.03;4.85;;;;;;;;;;6204145;23;20012;-91
2023/05/26 05:09:56;;;;;;;24.50;4.20;;;;;;;;;;6207771;23;20328;-92
2023/05/26 05:12:23;;;;;;;23.80;5.00;;;;;;;;;;6208112;23;20071;-93
2023/05/26 05:14:49;;;;;;;23.40;5.43;;;;;;;;;;6209179;23;20013;-92
2023/05/26 05:17:15;;;;;;;17.40;4.95;;;;;;;;;;6208864;23;20248;-91
2023/05/26 05:19:42;;;;;;;23.88;4.32;;;;;;;;;;6208726;23;20066;-92
2023/05/26 05:22:08;;;;;;;28.85;5.53;;;;;;;;;;6208842;23;20005;-91
2023/05/26 05:24:34;;;;;;;32.17;4.68;;;;;;;;;;6209939;23;20047;-91
2023/05/26 05:27:01;;;;;;;29.42;5.28;;;;;;;;;;6210409;23;20012;-91
2023/05/26 05:29:30;;;;;;;35.35;4.85;;;;;;;;;;6210607;23;20013;-90
2023/05/26 05:31:56;;;;;;;36.33;6.75;;;;;;;;;;6232640;22;20089;-91
2023/05/26 05:34:22;;;;;;;25.77;4.47;;;;;;;;;;6240394;23;20035;-91
2023/05/26 05:36:49;;;;;;;23.25;4.15;;;;;;;;;;6239187;23;20023;-91
2023/05/26 05:39:23;;;;;;;30.02;4.72;;;;;;;;;;6238716;22;20462;-92
2023/05/26 05:41:49;;;;;;;30.77;4.47;;;;;;;;;;6240179;23;20032;-92
2023/05/26 05:44:15;;;;;;;25.75;4.55;;;;;;;;;;6237894;23;20342;-92
2023/05/26 05:46:42;;;;;;;25.70;6.80;;;;;;;;;;6238879;23;20408;-91
2023/05/26 05:49:08;;;;;;;22.58;4.32;;;;;;;;;;6264420;22;20017;-91
2023/05/26 05:51:35;;;;;;;17.67;4.32;;;;;;;;;;6237676;23;20355;-91
2023/05/26 05:54:01;;;;;;;27.60;4.53;;;;;;;;;;6238886;23;20039;-91
2023/05/26 05:56:27;;;;;;;19.25;3.67;;;;;;;;;;6238803;23;20084;-91
2023/05/26 05:58:54;;;;;;;25.00;4.90;;;;;;;;;;6237867;23;20008;-90
2023/05/26 06:01:20;;;;;;;24.98;4.07;;;;;;;;;;6239088;23;20035;-91
2023/05/26 06:03:46;;;;;;;26.42;4.10;;;;;;;;;;6240271;23;20415;-91
2023/05/26 06:06:12;;;;;;;26.48;3.53;;;;;;;;;;6238830;23;20004;-90
2023/05/26 06:08:41;;;;;;;26.98;4.43;;;;;;;;;;6239214;23;20473;-91
2023/05/26 06:11:10;;;;;;;23.88;3.70;;;;;;;;;;6238619;23;20022;-91
2023/05/26 06:13:40;;;;;;;23.85;3.60;;;;;;;;;;6237939;23;20513;-93
2023/05/26 06:16:07;;;;;;;23.23;4.25;;;;;;;;;;6240686;23;20012;-91
2023/05/26 06:18:37;;;;;;;20.05;4.35;;;;;;;;;;6237859;23;20123;-90
2023/05/26 06:21:03;;;;;;;20.80;4.10;;;;;;;;;;6238920;23;20008;-92
2023/05/26 06:23:29;;;;;;;16.30;3.58;;;;;;;;;;6237563;23;20523;-91
2023/05/26 06:25:55;;;;;;;19.65;3.80;;;;;;;;;;6239976;23;20094;-91
2023/05/26 06:28:22;;;;;;;27.35;3.60;;;;;;;;;;6239656;23;20066;-91
2023/05/26 06:31:00;;;;;;;22.83;4.55;;;;;;;;;;6245498;22;20121;-91
2023/05/26 06:33:26;;;;;;;21.52;4.13;;;;;;;;;;6242302;22;20016;-90
2023/05/26 06:35:52;;;;;;;20.48;3.63;;;;;;;;;;6243982;22;20341;-92
2023/05/26 06:38:21;;;;;;;20.25;3.65;;;;;;;;;;6242975;22;20007;-90
2023/05/26 06:40:47;;;;;;;26.05;3.75;;;;;;;;;;6244499;22;20088;-92
2023/05/26 06:43:13;;;;;;;17.38;3.30;;;;;;;;;;6243440;22;20008;-92
2023/05/26 06:45:42;;;;;;;21.27;3.95;;;;;;;;;;6244933;22;20453;-91
2023/05/26 06:48:08;;;;;;;12.60;4.68;;;;;;;;;;6243858;22;20024;-91
2023/05/26 06:50:34;;;;;;;18.98;3.53;;;;;;;;;;6244443;22;20056;-91
2023/05/26 06:53:03;;;;;;;20.48;4.53;;;;;;;;;;6245184;22;20107;-90
2023/05/26 06:55:29;;;;;;;23.63;3.53;;;;;;;;;;6244627;22;20322;-90
2023/05/26 06:57:56;;;;;;;14.80;3.35;;;;;;;;;;6244521;22;20392;-90
2023/05/26 07:00:25;;;;;;;17.58;4.18;;;;;;;;;;6246199;22;20015;-91
2023/05/26 07:02:51;;;;;;;14.48;3.63;;;;;;;;;;6245183;22;20008;-91
2023/05/26 07:05:18;;;;;;;11.57;3.20;;;;;;;;;;6272205;22;19999;-90
2023/05/26 07:07:50;;;;;;;15.73;4.20;;;;;;;;;;6245183;22;20318;-92
2023/05/26 07:10:19;;;;;;;11.68;3.25;;;;;;;;;;6246813;22;20342;-91
2023/05/26 07:12:45;;;;;;;11.02;3.65;;;;;;;;;;6243453;22;20054;-92
2023/05/26 07:15:12;;;;;;;17.08;3.47;;;;;;;;;;6245233;22;20008;-92
2023/05/26 07:17:38;;;;;;;14.20;3.17;;;;;;;;;;6244393;22;20395;-91
2023/05/26 07:20:05;;;;;;;17.40;3.17;;;;;;;;;;6244300;22;20036;-92
2023/05/26 07:22:37;;;;;;;24.25;3.40;;;;;;;;;;6245480;22;20428;-91
2023/05/26 07:25:03;;;;;;;12.27;3.78;;;;;;;;;;6244557;22;20007;-91
2023/05/26 07:27:29;;;;;;;20.13;3.65;;;;;;;;;;6247283;22;20008;-92
2023/05/26 07:29:56;;;;;;;12.90;2.90;;;;;;;;;;6244766;22;20019;-91
2023/05/26 07:32:28;;;;;;;19.15;3.88;;;;;;;;;;6202480;22;20044;-92
2023/05/26 07:34:58;;;;;;;14.50;2.92;;;;;;;;;;6184988;23;20028;-92
2023/05/26 07:37:24;;;;;;;13.13;3.03;;;;;;;;;;6213555;23;20347;-92
2023/05/26 07:39:50;;;;;;;19.92;3.45;;;;;;;;;;6210952;23;20439;-91
2023/05/26 07:42:29;;;;;;;12.18;3.25;;;;;;;;;;6212455;23;20008;-91
2023/05/26 07:44:56;;;;;;;16.02;3.70;;;;;;;;;;6210918;23;20012;-92
2023/05/26 07:47:23;;;;;;;15.43;3.50;;;;;;;;;;6213803;23;20040;-92
2023/05/26 07:49:56;;;;;;;11.80;2.90;;;;;;;;;;6190869;23;20019;-92
2023/05/26 07:52:22;;;;;;;9.07;3.15;;;;;;;;;;6213896;23;20012;-92
2023/05/26 07:54:55;;;;;;;22.05;3.25;;;;;;;;;;6212849;23;20013;-92
2023/05/26 07:57:21;;;;;;;20.13;2.88;;;;;;;;;;6213739;23;20039;-92
2023/05/26 07:59:48;;;;;;;10.15;3.42;;;;;;;;;;6210108;23;20009;-92
2023/05/26 08:02:24;;;;;;;17.45;2.70;;;;;;;;;;6236735;23;20020;-94
2023/05/26 08:04:51;;;;;;;13.82;3.10;;;;;;;;;;6212428;23;20008;-92
2023/05/26 08:07:17;;;;;;;14.10;2.85;;;;;;;;;;6213436;23;20039;-93
2023/05/26 08:10:12;;;;;;;11.38;2.42;;;;;;;;;;6209651;23;20499;-94
2023/05/26 08:12:39;;;;;;;12.30;2.42;;;;;;;;;;6174834;23;20019;-93
2023/05/26 08:15:24;;;;;;;13.85;3.15;;;;;;;;;;6211698;23;20009;-94
2023/05/26 08:18:00;;;;;;;14.90;3.07;;;;;;;;;;6209834;23;20024;-93
2023/05/26 08:20:27;;;;;;;12.13;2.97;;;;;;;;;;6211259;23;20089;-93
2023/05/26 08:22:53;;;;;;;13.88;3.03;;;;;;;;;;6211283;23;20005;-93
2023/05/26 08:25:34;;;;;;;9.98;3.00;;;;;;;;;;6212083;23;20016;-93
2023/05/26 08:28:01;;;;;;;8.25;2.90;;;;;;;;;;6212254;23;20016;-93
2023/05/26 08:30:41;;;;;;;11.35;3.25;;;;;;;;;;6235813;23;20502;-93
2023/05/26 08:33:15;;;;;;;;;;;;;;;;;;6242621;22;20030;-92
2023/05/26 08:35:44;;;;;;;18.23;3.17;;;;;;;;;;6243056;23;19935;-93
2023/05/26 08:41:04;;;;;;;13.20;3.13;;;;;;;;;;6152204;23;20013;-93
2023/05/26 08:43:42;;;;;;;14.10;3.17;;;;;;;;;;6240013;22;20008;-94
2023/05/26 08:46:09;;;;;;;17.35;3.45;;;;;;;;;;6245516;23;20446;-93
2023/05/26 08:48:46;;;;;;;18.48;3.40;;;;;;;;;;6253592;23;20004;-93
2023/05/26 08:55:00;;;;;;;16.45;3.30;;;;;;;;;;6227770;23;20012;-94
2023/05/26 08:57:45;;;;;;;15.85;3.13;;;;;;;;;;6175569;23;20040;-92
2023/05/26 09:01:28;;;;;;;11.52;3.08;;;;;;;;;;6164200;23;20037;-94
2023/05/26 09:03:44;;;;;;;13.05;3.40;;;;;;;;;;6109834;23;20056;-93
2023/05/26 09:06:33;;;;;;;15.40;3.60;;;;;;;;;;6046063;23;20043;-93
2023/05/26 09:12:33;;;;;;;;;;;;;;;;;;;;;
2023/05/26 09:15:25;;;;;;;13.45;3.40;;;;;;;;;;5924220;23;20015;-94
2023/05/26 09:18:47;;;;;;;;;;;;;;;;;;;;;
2023/05/26 09:21:20;;;;;;;16.80;4.05;;;;;;;;;;5928551;24;20021;-93
2023/05/26 09:23:54;;;;;;;13.90;3.45;;;;;;;;;;6006457;23;20134;-94
2023/05/26 09:26:27;;;;;;;16.38;3.03;;;;;;;;;;6151947;22;20004;-93
2023/05/26 09:29:02;;;;;;;15.15;3.88;;;;;;;;;;6251875;23;20015;-94
2023/05/26 09:32:27;;;;;;;14.55;3.72;;;;;;;;;;6262937;23;20012;-94
2023/05/26 09:35:05;;;;;;;13.98;4.28;;;;;;;;;;6173381;23;20056;-94
2023/05/26 09:43:57;;;;;;;15.88;3.25;;;;;;;;;;6073764;23;20022;-94
2023/05/26 09:46:27;;;;;;;11.85;3.38;;;;;;;;;;6118339;23;20001;-95
2023/05/26 09:49:25;;;;;;;12.88;2.92;;;;;;;;;;6117025;23;20016;-95
2023/05/26 09:52:16;;;;;;;16.70;3.05;;;;;;;;;;6138247;23;20018;-94
2023/05/26 09:54:42;;;;;;;13.20;3.70;;;;;;;;;;6161628;23;20009;-94
2023/05/26 09:57:14;;;;;;;16.50;3.67;;;;;;;;;;6108895;23;20036;-94
2023/05/26 09:59:41;;;;;;;12.43;3.30;;;;;;;;;;6158726;23;20029;-94
2023/05/26 10:02:32;;;;;;;14.80;3.65;;;;;;;;;;6159596;23;20030;-94
2023/05/26 10:05:02;;;;;;;16.25;3.85;;;;;;;;;;6092885;23;20007;-94
2023/05/26 10:07:44;;;;;;;9.85;3.58;;;;;;;;;;6074335;23;20093;-93
2023/05/26 10:10:30;;;;;;;14.48;3.38;;;;;;;;;;6100899;23;20019;-94
2023/05/26 10:12:59;;;;;;;9.48;3.15;;;;;;;;;;6099971;23;20017;-94
2023/05/26 10:18:35;;;;;;;16.60;3.80;;;;;;;;;;6165651;23;20037;-96
2023/05/26 10:21:12;;;;;;;22.38;5.07;;;;;;;;;;6161178;23;20360;-96
2023/05/26 10:23:56;;;;;;;9.93;4.18;;;;;;;;;;6167520;23;20032;-95
2023/05/26 10:26:46;;;;;;;9.85;3.42;;;;;;;;;;6161943;23;20017;-95
2023/05/26 10:29:18;;;;;;;16.02;5.22;;;;;;;;;;6213301;22;20007;-95
2023/05/26 10:31:57;;;;;;;13.70;3.85;;;;;;;;;;6261454;22;20027;-96
2023/05/26 10:34:51;;;;;;;15.63;3.65;;;;;;;;;;6210072;22;20084;-96
2023/05/26 10:37:20;;;;;;;17.20;3.67;;;;;;;;;;6191160;23;20009;-95
2023/05/26 10:39:51;;;;;;;16.63;4.85;;;;;;;;;;6222132;23;20019;-95
2023/05/26 10:42:42;;;;;;;15.98;3.65;;;;;;;;;;6220922;23;20521;-95
2023/05/26 10:45:19;;;;;;;18.85;3.63;;;;;;;;;;6180455;23;20013;-96
2023/05/26 10:47:45;;;;;;;;;;;;;;;;;;6190319;23;20015;-96
2023/05/26 10:50:30;;;;;;;10.10;2.95;;;;;;;;;;6189644;23;19923;-96
2023/05/26 10:52:57;;;;;;;17.02;4.15;;;;;;;;;;6194170;23;20019;-95
2023/05/26 10:55:32;;;;;;;15.48;3.30;;;;;;;;;;6190958;23;20011;-95
2023/05/26 10:58:17;;;;;;;19.63;4.38;;;;;;;;;;6187776;23;20025;-95
2023/05/26 11:00:44;;;;;;;11.27;4.18;;;;;;;;;;6191847;23;20009;-96
2023/05/26 11:03:29;;;;;;;14.02;3.20;;;;;;;;;;6187118;23;20020;-95
2023/05/26 11:05:57;;;;;;;19.13;5.47;;;;;;;;;;6188415;23;20066;-95
2023/05/26 11:08:26;;;;;;;13.32;3.85;;;;;;;;;;6192599;23;20012;-96
2023/05/26 11:11:06;;;;;;;17.45;3.78;;;;;;;;;;6190330;23;20068;-96
2023/05/26 11:13:46;;;;;;;15.38;4.28;;;;;;;;;;6187765;23;20004;-96
2023/05/26 11:16:23;;;;;;;10.40;3.78;;;;;;;;;;6202947;23;20013;-95
2023/05/26 11:19:22;;;;;;;;;;;;;;;;;;;;;
2023/05/26 11:21:53;;;;;;;17.10;3.90;;;;;;;;;;6210981;23;20071;-96
2023/05/26 11:24:19;;;;;;;21.15;4.60;;;;;;;;;;6196454;23;20017;-95
2023/05/26 11:26:46;;;;;;;13.25;4.10;;;;;;;;;;6192496;23;20035;-95
2023/05/26 11:29:18;;;;;;;14.90;4.05;;;;;;;;;;6196631;23;20017;-95
2023/05/26 11:32:06;;;;;;;14.77;3.40;;;;;;;;;;6220985;23;20011;-95
2023/05/26 11:34:33;;;;;;;15.57;4.00;;;;;;;;;;6237507;22;20020;-96
2023/05/26 11:37:19;;;;;;;13.10;3.97;;;;;;;;;;6248883;23;20008;-96
2023/05/26 11:39:45;;;;;;;;;;;;;;;;;;6243952;23;20008;-96
2023/05/26 11:42:18;;;;;;;16.02;3.70;;;;;;;;;;6252115;23;19906;-95
2023/05/26 11:44:44;;;;;;;13.85;3.92;;;;;;;;;;6244376;23;20334;-96
2023/05/26 11:47:14;;;;;;;16.17;3.92;;;;;;;;;;6242078;23;20078;-96
2023/05/26 11:49:46;;;;;;;15.98;4.82;;;;;;;;;;6243554;23;20018;-96
2023/05/26 11:55:19;;;;;;;17.08;4.15;;;;;;;;;;6184034;23;20351;-96
2023/05/26 11:57:47;;;;;;;12.45;3.65;;;;;;;;;;6140433;23;19993;-93
2023/05/26 12:00:15;;;;;;;20.20;4.03;;;;;;;;;;6210530;23;20213;-96
2023/05/26 12:05:52;;;;;;;21.10;4.43;;;;;;;;;;6181938;23;20009;-96
2023/05/26 12:08:18;;;;;;;14.35;3.17;;;;;;;;;;6243109;23;20004;-96
2023/05/26 12:10:46;;;;;;;17.70;4.35;;;;;;;;;;6243015;23;20083;-94
2023/05/26 12:13:12;;;;;;;16.67;4.38;;;;;;;;;;6241840;23;20426;-94
2023/05/26 12:15:39;;;;;;;17.77;4.20;;;;;;;;;;6244678;23;20089;-94
2023/05/26 12:18:05;;;;;;;13.02;3.50;;;;;;;;;;6246366;23;20088;-95
2023/05/26 12:20:35;;;;;;;13.68;4.40;;;;;;;;;;6249889;23;20011;-95
2023/05/26 12:23:02;;;;;;;19.98;4.72;;;;;;;;;;6244952;23;20004;-95
2023/05/26 12:25:35;;;;;;;19.23;4.97;;;;;;;;;;6248015;23;20015;-95
2023/05/26 12:28:42;;;;;;;17.83;4.35;;;;;;;;;;6243365;23;20062;-95
2023/05/26 12:31:07;;;;;;;16.75;3.80;;;;;;;;;;6250529;22;20012;-95
2023/05/26 12:33:34;;;;;;;18.63;3.78;;;;;;;;;;6234554;22;20080;-94
2023/05/26 12:36:23;;;;;;;17.30;3.75;;;;;;;;;;6213798;23;20481;-95
2023/05/26 12:38:49;;;;;;;13.57;3.80;;;;;;;;;;6212837;23;20323;-95
2023/05/26 12:41:21;;;;;;;13.73;4.15;;;;;;;;;;6212167;23;20016;-94
2023/05/26 12:43:47;;;;;;;13.65;3.40;;;;;;;;;;6218103;23;20004;-95
2023/05/26 12:46:20;;;;;;;20.30;4.50;;;;;;;;;;6209827;23;20493;-95
2023/05/26 12:48:46;;;;;;;16.48;4.10;;;;;;;;;;6212880;23;20457;-95
2023/05/26 12:51:16;;;;;;;14.50;5.20;;;;;;;;;;6211609;23;20008;-95
2023/05/26 12:53:43;;;;;;;22.50;4.68;;;;;;;;;;6211318;23;20308;-96
2023/05/26 12:56:15;;;;;;;12.70;4.03;;;;;;;;;;6210739;23;20465;-95
2023/05/26 12:58:45;;;;;;;19.95;4.25;;;;;;;;;;6211365;23;20012;-95
2023/05/26 13:01:12;;;;;;;21.92;5.05;;;;;;;;;;6211447;23;20001;-95
2023/05/26 13:03:39;;;;;;;19.60;4.55;;;;;;;;;;6211814;23;20347;-95
2023/05/26 13:06:10;;;;;;;22.98;5.15;;;;;;;;;;6210642;23;20087;-96
2023/05/26 13:08:36;;;;;;;25.90;5.53;;;;;;;;;;6212829;23;20008;-93
2023/05/26 13:11:03;;;;;;;19.83;4.57;;;;;;;;;;6209335;23;20319;-95
2023/05/26 13:13:31;;;;;;;17.30;4.18;;;;;;;;;;6214010;23;20030;-95
2023/05/26 13:15:58;;;;;;;23.08;4.10;;;;;;;;;;6211900;23;20036;-94
2023/05/26 13:18:24;;;;;;;18.85;4.38;;;;;;;;;;6208493;23;20012;-95
2023/05/26 13:20:56;;;;;;;23.75;4.85;;;;;;;;;;6211267;23;20012;-95
2023/05/26 13:23:25;;;;;;;16.90;4.22;;;;;;;;;;6209528;23;20015;-95
2023/05/26 13:25:52;;;;;;;21.02;4.30;;;;;;;;;;6211159;23;20012;-95
2023/05/26 13:28:24;;;;;;;26.77;4.78;;;;;;;;;;6212371;23;20205;-96
2023/05/26 13:30:51;;;;;;;18.50;3.92;;;;;;;;;;6211541;23;20320;-96
2023/05/26 13:33:17;;;;;;;18.58;4.03;;;;;;;;;;6196878;22;20002;-95
2023/05/26 13:35:43;;;;;;;16.15;3.90;;;;;;;;;;6246572;22;20068;-96
2023/05/26 13:38:10;;;;;;;20.52;6.30;;;;;;;;;;6247446;22;20011;-96
2023/05/26 13:40:36;;;;;;;19.17;4.60;;;;;;;;;;6245186;22;20372;-95
2023/05/26 13:43:02;;;;;;;17.20;3.05;;;;;;;;;;6243454;22;20007;-95
2023/05/26 13:45:32;;;;;;;16.98;3.42;;;;;;;;;;6247056;22;20027;-94
2023/05/26 13:47:59;;;;;;;16.63;4.50;;;;;;;;;;6244359;22;20304;-95
2023/05/26 13:50:26;;;;;;;17.50;4.40;;;;;;;;;;6246270;22;20314;-95
2023/05/26 13:52:55;;;;;;;12.40;3.50;;;;;;;;;;6245286;22;20007;-94
2023/05/26 13:55:22;;;;;;;16.50;4.53;;;;;;;;;;6246139;22;20011;-95
2023/05/26 13:57:48;;;;;;;12.45;3.72;;;;;;;;;;6245066;22;20356;-96
2023/05/26 14:00:21;;;;;;;16.95;4.25;;;;;;;;;;6249422;22;20019;-96
2023/05/26 14:02:49;;;;;;;17.88;3.70;;;;;;;;;;6245765;22;20007;-95
2023/05/26 14:05:19;;;;;;;16.50;4.03;;;;;;;;;;6247025;22;20015;-95
2023/05/26 14:07:46;;;;;;;18.55;3.55;;;;;;;;;;6251557;22;20448;-95
2023/05/26 14:10:15;;;;;;;18.40;4.72;;;;;;;;;;6246727;22;20098;-95
2023/05/26 14:12:45;;;;;;;13.43;3.20;;;;;;;;;;6245237;22;20058;-96
2023/05/26 14:15:12;;;;;;;23.10;4.05;;;;;;;;;;6246964;22;20062;-95
2023/05/26 14:17:41;;;;;;;19.33;4.40;;;;;;;;;;6250086;22;20095;-95
2023/05/26 14:20:15;;;;;;;20.02;4.03;;;;;;;;;;6247483;22;20008;-95
2023/05/26 14:22:41;;;;;;;18.92;3.55;;;;;;;;;;6249005;22;20035;-95
2023/05/26 14:25:08;;;;;;;21.65;4.97;;;;;;;;;;6246706;22;20451;-95
2023/05/26 14:27:34;;;;;;;16.33;5.20;;;;;;;;;;6248730;22;20008;-95
2023/05/26 14:30:04;;;;;;;16.00;3.92;;;;;;;;;;6248179;22;20012;-95
2023/05/26 14:32:30;;;;;;;22.27;4.25;;;;;;;;;;6250042;22;20079;-95
2023/05/26 14:34:57;;;;;;;12.95;3.75;;;;;;;;;;6244752;22;20269;-95
2023/05/26 14:37:23;;;;;;;15.70;3.88;;;;;;;;;;6244092;22;20020;-95
2023/05/26 14:39:50;;;;;;;15.70;3.85;;;;;;;;;;6245788;23;20047;-95
2023/05/26 14:42:16;;;;;;;14.27;4.25;;;;;;;;;;6247631;23;20009;-96
2023/05/26 14:44:45;;;;;;;11.80;3.70;;;;;;;;;;6255096;23;20001;-95
2023/05/26 14:47:16;;;;;;;15.88;3.97;;;;;;;;;;6257276;23;20556;-95
2023/05/26 14:49:49;;;;;;;16.42;4.15;;;;;;;;;;6257618;23;20436;-96
2023/05/26 14:52:18;;;;;;;12.23;3.17;;;;;;;;;;6256823;23;20012;-96
2023/05/26 14:54:44;;;;;;;19.80;3.63;;;;;;;;;;6256265;23;20012;-95
2023/05/26 14:57:10;;;;;;;12.25;4.07;;;;;;;;;;6255741;23;20044;-95
2023/05/26 14:59:53;;;;;;;16.17;3.20;;;;;;;;;;6252424;23;20079;-96
2023/05/26 15:02:19;;;;;;;15.63;3.92;;;;;;;;;;6253389;23;20008;-95
2023/05/26 15:04:48;;;;;;;14.18;3.80;;;;;;;;;;6249798;23;20064;-94
2023/05/26 15:07:27;;;;;;;12.73;3.55;;;;;;;;;;6245756;23;20440;-95
2023/05/26 15:09:53;;;;;;;14.20;4.00;;;;;;;;;;6243597;23;20012;-95
2023/05/26 15:12:21;;;;;;;13.32;4.00;;;;;;;;;;6242465;23;20316;-94
2023/05/26 15:14:53;;;;;;;17.67;3.58;;;;;;;;;;6243216;23;20496;-95
2023/05/26 15:17:19;;;;;;;17.25;4.43;;;;;;;;;;6241094;23;20012;-96
2023/05/26 15:19:46;;;;;;;17.20;3.75;;;;;;;;;;6243054;23;20087;-95
2023/05/26 15:22:15;;;;;;;18.13;4.40;;;;;;;;;;6240896;23;20150;-95